»·PEaware :: N136GH KYKM-KMMV

N136GH :: KYKM-KMMV

FLIGHT INFORMATION

Flight Status: Arrived
Operator: Privately registered:
United States
More flights under this callsign
Pilot: Gabor H. (24209)
Aircraft: BEECH AIRCRAFT BONANZA
(BE36)
More flights by this aircraft type
Origin: KYKM Yakima Air Term/Mcallister
United States
Destination: KMMV McMinnville Mun
United States
More flights between these airports :: More routes between these airports
Route: GROMO4 GUBSE V25 LTJ V182 BTG
File this flight plan on PilotEdge
Remarks:
Altitude:
(Current/Filed)
8,000ft
Speed:
(Current/Filed)
160kts
Departed: 28-Apr-20 02:28 PM
Arrived: 28-Apr-20 03:32 PM
Distance/Time
Traveled:
136nm/1:03
Distance/Time
To Go:
Arrived

Flight Plot

Page will automatically refresh every two minutes.


Map Options




Map Legend


Flown Route
Filed Route
Departure Airport
Arrival Airport
Navaid (VOR, NDB)
Fix

Horizontal Profiles

Position Reports

Time Latitude Longitude Heading Altitude Ground
Speed
28-Apr-20 14:18 46.570396 -120.542741 272 1073ft 0kts
28-Apr-20 14:19 46.570396 -120.542741 272 1073ft 0kts
28-Apr-20 14:20 46.570396 -120.542741 272 1073ft 0kts
28-Apr-20 14:20 46.570396 -120.542741 272 1073ft 0kts
28-Apr-20 14:22 46.570396 -120.542741 272 1073ft 0kts
28-Apr-20 14:23 46.570396 -120.542741 272 1073ft 0kts
28-Apr-20 14:23 46.570220 -120.542963 166 1073ft 6kts
28-Apr-20 14:24 46.568493 -120.538656 111 1064ft 19kts
28-Apr-20 14:26 46.566453 -120.531531 170 1052ft 1kts
28-Apr-20 14:27 46.566199 -120.531475 177 1052ft 7kts
28-Apr-20 14:27 46.568475 -120.543175 291 1125ft 85kts
28-Apr-20 14:28 46.573253 -120.582309 264 1940ft 113kts
28-Apr-20 14:30 46.572425 -120.637979 273 3125ft 121kts
28-Apr-20 14:30 46.563222 -120.672169 190 3945ft 127kts
28-Apr-20 14:31 46.530482 -120.655941 162 4913ft 127kts
28-Apr-20 14:32 46.496115 -120.634418 150 5639ft 141kts
28-Apr-20 14:33 46.464273 -120.599222 135 6349ft 147kts
28-Apr-20 14:34 46.439687 -120.553185 132 7132ft 143kts
28-Apr-20 14:35 46.409944 -120.566888 221 7879ft 126kts
28-Apr-20 14:36 46.375838 -120.595776 213 8020ft 158kts
28-Apr-20 14:37 46.335391 -120.627022 212 8016ft 169kts
28-Apr-20 14:38 46.293404 -120.659371 212 8014ft 172kts
28-Apr-20 14:39 46.251156 -120.691894 212 8041ft 172kts
28-Apr-20 14:40 46.208873 -120.724405 212 8041ft 173kts
28-Apr-20 14:41 46.166364 -120.757022 212 8040ft 173kts
28-Apr-20 14:42 46.123779 -120.789643 212 8038ft 173kts
28-Apr-20 14:43 46.081371 -120.822151 212 8034ft 173kts
28-Apr-20 14:44 46.038823 -120.854649 212 8030ft 173kts
28-Apr-20 14:45 45.996346 -120.887019 212 8026ft 173kts
28-Apr-20 14:46 45.953834 -120.919357 212 8024ft 172kts
28-Apr-20 14:47 45.911454 -120.951539 212 8023ft 172kts
28-Apr-20 14:48 45.869060 -120.983677 212 8021ft 172kts
28-Apr-20 14:49 45.826759 -121.015688 212 8021ft 172kts
28-Apr-20 14:50 45.784387 -121.047696 212 8021ft 171kts
28-Apr-20 14:51 45.742255 -121.079467 212 8021ft 171kts
28-Apr-20 14:52 45.717321 -121.127761 267 8023ft 160kts
28-Apr-20 14:53 45.716839 -121.191596 272 8021ft 160kts
28-Apr-20 14:54 45.718263 -121.255149 273 8021ft 160kts
28-Apr-20 14:55 45.719980 -121.318951 273 8021ft 160kts
28-Apr-20 14:56 45.721757 -121.382167 273 8021ft 160kts
28-Apr-20 14:57 45.723412 -121.445696 273 8021ft 160kts
28-Apr-20 14:58 45.725078 -121.509429 273 8020ft 160kts
28-Apr-20 14:59 45.726710 -121.572967 273 8020ft 160kts
28-Apr-20 15:00 45.728316 -121.636796 273 8020ft 160kts
28-Apr-20 15:01 45.729882 -121.700565 273 8024ft 160kts
28-Apr-20 15:02 45.731411 -121.764288 273 8028ft 160kts
28-Apr-20 15:03 45.732903 -121.827824 273 8033ft 159kts
28-Apr-20 15:04 45.734363 -121.891546 273 8010ft 160kts
28-Apr-20 15:05 45.735783 -121.955201 273 8012ft 159kts
28-Apr-20 15:06 45.737157 -122.018609 273 8012ft 159kts
28-Apr-20 15:07 45.738488 -122.081759 273 8012ft 159kts
28-Apr-20 15:08 45.739788 -122.145138 273 8012ft 159kts
28-Apr-20 15:09 45.741045 -122.208354 273 8012ft 159kts
28-Apr-20 15:10 45.742268 -122.271535 273 8012ft 159kts
28-Apr-20 15:11 45.743487 -122.334973 273 8004ft 160kts
28-Apr-20 15:12 45.744648 -122.399101 272 8003ft 161kts
28-Apr-20 15:13 45.745868 -122.463883 272 8003ft 162kts
28-Apr-20 15:14 45.746954 -122.528523 272 8002ft 162kts
28-Apr-20 15:15 45.740378 -122.590008 222 8008ft 167kts
28-Apr-20 15:16 45.699935 -122.624474 211 7997ft 171kts
28-Apr-20 15:17 45.657708 -122.654889 209 7985ft 172kts
28-Apr-20 15:18 45.614694 -122.685115 209 7986ft 173kts
28-Apr-20 15:19 45.570632 -122.716101 206 7394ft 179kts
28-Apr-20 15:20 45.526309 -122.746748 204 6584ft 175kts
28-Apr-20 15:21 45.482954 -122.776917 205 5849ft 171kts
28-Apr-20 15:22 45.440602 -122.806380 205 5147ft 168kts
28-Apr-20 15:23 45.398660 -122.835501 205 4442ft 167kts
28-Apr-20 15:24 45.356862 -122.864460 206 3742ft 167kts
28-Apr-20 15:25 45.316132 -122.892590 207 3121ft 159kts
28-Apr-20 15:26 45.287734 -122.937056 238 2494ft 143kts
28-Apr-20 15:27 45.266502 -122.983804 238 2082ft 147kts
28-Apr-20 15:28 45.244490 -123.032297 239 1777ft 146kts
28-Apr-20 15:29 45.222242 -123.081189 238 992ft 119kts
28-Apr-20 15:30 45.208535 -123.111371 237 524ft 86kts
28-Apr-20 15:31 45.196875 -123.137063 285 161ft 15kts
28-Apr-20 15:32 45.198247 -123.139588 54 161ft 0kts
28-Apr-20 15:33 45.198247 -123.139588 54 161ft 0kts
28-Apr-20 15:34 45.198247 -123.139588 54 161ft 0kts
28-Apr-20 15:35 45.198247 -123.139588 54 161ft 0kts
28-Apr-20 15:36 45.198247 -123.139588 54 161ft 0kts
28-Apr-20 15:37 45.198247 -123.139588 54 161ft 0kts
28-Apr-20 15:38 45.198247 -123.139588 54 161ft 0kts
28-Apr-20 15:39 45.198247 -123.139588 54 161ft 0kts
28-Apr-20 15:40 45.198247 -123.139588 54 161ft 0kts

Navigation Log

Ident Type
Flight plan parsing failed, navigation log unavailable